Aviation Digital Data Service (ADDS)

Output produced by METARs form (1037 UTC 25 July 2014)
found at http://aviationweather.gov/adds/metars/
 
KBOS 250905Z 2509/2612 32010KT P6SM SCT250 
     FM251400 07005KT P6SM SKC 
     FM251700 13006KT P6SM SKC 
     FM252100 16010KT P6SM SKC 
     FM252300 20010KT P6SM FEW250 
     FM260500 24008KT P6SM FEW250